sensor_id;sensor_type;location;lat;lon;timestamp;P1;durP1;ratioP1;P2;durP2;ratioP2
64244;SDS011;50584;29.058;-110.966;2022-11-04T00:01:23;8.85;;;1.33;;
64244;SDS011;50584;29.058;-110.966;2022-11-04T00:03:49;2.08;;;1.33;;
64244;SDS011;50584;29.058;-110.966;2022-11-04T00:06:15;8.02;;;0.90;;
64244;SDS011;50584;29.058;-110.966;2022-11-04T00:08:41;5.25;;;0.70;;
64244;SDS011;50584;29.058;-110.966;2022-11-04T00:11:08;2.38;;;1.00;;
64244;SDS011;50584;29.058;-110.966;2022-11-04T00:13:52;8.27;;;1.33;;
64244;SDS011;50584;29.058;-110.966;2022-11-04T00:16:18;6.78;;;1.40;;
64244;SDS011;50584;29.058;-110.966;2022-11-04T00:19:02;4.90;;;1.20;;
64244;SDS011;50584;29.058;-110.966;2022-11-04T00:21:28;6.40;;;0.95;;
64244;SDS011;50584;29.058;-110.966;2022-11-04T00:24:12;8.23;;;1.30;;
64244;SDS011;50584;29.058;-110.966;2022-11-04T00:26:57;5.82;;;1.25;;
64244;SDS011;50584;29.058;-110.966;2022-11-04T00:29:41;5.40;;;1.20;;
64244;SDS011;50584;29.058;-110.966;2022-11-04T00:32:09;6.07;;;1.30;;
64244;SDS011;50584;29.058;-110.966;2022-11-04T00:34:53;11.48;;;1.65;;
64244;SDS011;50584;29.058;-110.966;2022-11-04T00:37:19;7.80;;;1.75;;
64244;SDS011;50584;29.058;-110.966;2022-11-04T00:39:45;6.95;;;0.85;;
64244;SDS011;50584;29.058;-110.966;2022-11-04T00:42:11;3.65;;;1.08;;
64244;SDS011;50584;29.058;-110.966;2022-11-04T00:44:36;3.88;;;1.02;;
64244;SDS011;50584;29.058;-110.966;2022-11-04T00:47:02;5.15;;;0.98;;
64244;SDS011;50584;29.058;-110.966;2022-11-04T00:49:28;11.93;;;1.00;;
64244;SDS011;50584;29.058;-110.966;2022-11-04T00:51:54;6.53;;;1.40;;
64244;SDS011;50584;29.058;-110.966;2022-11-04T00:54:19;2.83;;;1.00;;
64244;SDS011;50584;29.058;-110.966;2022-11-04T00:56:45;12.65;;;1.02;;
64244;SDS011;50584;29.058;-110.966;2022-11-04T00:59:13;12.25;;;1.55;;
64244;SDS011;50584;29.058;-110.966;2022-11-04T01:01:39;6.60;;;1.35;;
64244;SDS011;50584;29.058;-110.966;2022-11-04T01:04:04;20.95;;;1.60;;
64244;SDS011;50584;29.058;-110.966;2022-11-04T01:06:31;13.70;;;2.22;;
64244;SDS011;50584;29.058;-110.966;2022-11-04T01:08:57;13.02;;;1.40;;
64244;SDS011;50584;29.058;-110.966;2022-11-04T01:11:23;4.35;;;1.13;;
64244;SDS011;50584;29.058;-110.966;2022-11-04T01:13:50;1.75;;;1.05;;
64244;SDS011;50584;29.058;-110.966;2022-11-04T01:16:16;6.13;;;1.25;;
64244;SDS011;50584;29.058;-110.966;2022-11-04T01:18:42;8.05;;;1.58;;
64244;SDS011;50584;29.058;-110.966;2022-11-04T01:21:09;9.85;;;1.50;;
64244;SDS011;50584;29.058;-110.966;2022-11-04T01:23:35;4.82;;;1.00;;
64244;SDS011;50584;29.058;-110.966;2022-11-04T01:26:08;9.50;;;1.45;;
64244;SDS011;50584;29.058;-110.966;2022-11-04T01:28:34;3.25;;;1.08;;
64244;SDS011;50584;29.058;-110.966;2022-11-04T01:31:10;7.15;;;1.48;;
64244;SDS011;50584;29.058;-110.966;2022-11-04T01:33:36;5.65;;;1.00;;
64244;SDS011;50584;29.058;-110.966;2022-11-04T01:36:03;2.47;;;1.00;;
64244;SDS011;50584;29.058;-110.966;2022-11-04T01:38:29;10.15;;;1.35;;
64244;SDS011;50584;29.058;-110.966;2022-11-04T01:40:55;6.47;;;1.33;;
64244;SDS011;50584;29.058;-110.966;2022-11-04T01:43:21;7.10;;;1.33;;
64244;SDS011;50584;29.058;-110.966;2022-11-04T01:45:48;6.25;;;1.00;;
64244;SDS011;50584;29.058;-110.966;2022-11-04T01:48:19;3.80;;;1.02;;
64244;SDS011;50584;29.058;-110.966;2022-11-04T01:50:47;5.47;;;1.50;;
64244;SDS011;50584;29.058;-110.966;2022-11-04T01:53:17;2.72;;;1.10;;
64244;SDS011;50584;29.058;-110.966;2022-11-04T01:55:49;3.47;;;1.17;;
64244;SDS011;50584;29.058;-110.966;2022-11-04T01:58:16;4.95;;;1.00;;
64244;SDS011;50584;29.058;-110.966;2022-11-04T02:00:43;4.32;;;1.30;;
64244;SDS011;50584;29.058;-110.966;2022-11-04T02:05:34;5.53;;;1.50;;
64244;SDS011;50584;29.058;-110.966;2022-11-04T02:08:01;15.65;;;1.77;;
64244;SDS011;50584;29.058;-110.966;2022-11-04T02:10:29;3.55;;;0.85;;
64244;SDS011;50584;29.058;-110.966;2022-11-04T02:12:55;2.97;;;1.05;;
64244;SDS011;50584;29.058;-110.966;2022-11-04T02:15:45;2.40;;;1.15;;
64244;SDS011;50584;29.058;-110.966;2022-11-04T02:18:25;3.88;;;1.15;;
64244;SDS011;50584;29.058;-110.966;2022-11-04T02:23:43;6.72;;;1.58;;
64244;SDS011;50584;29.058;-110.966;2022-11-04T02:34:00;6.53;;;1.50;;
64244;SDS011;50584;29.058;-110.966;2022-11-04T02:36:37;12.48;;;1.30;;
64244;SDS011;50584;29.058;-110.966;2022-11-04T02:41:55;2.75;;;1.20;;
64244;SDS011;50584;29.058;-110.966;2022-11-04T02:44:26;9.77;;;1.42;;
64244;SDS011;50584;29.058;-110.966;2022-11-04T02:54:53;5.88;;;1.23;;
64244;SDS011;50584;29.058;-110.966;2022-11-04T02:57:22;7.18;;;1.08;;
64244;SDS011;50584;29.058;-110.966;2022-11-04T02:59:52;7.00;;;1.00;;
64244;SDS011;50584;29.058;-110.966;2022-11-04T03:02:25;12.53;;;1.70;;
64244;SDS011;50584;29.058;-110.966;2022-11-04T03:04:52;3.40;;;1.30;;
64244;SDS011;50584;29.058;-110.966;2022-11-04T03:07:20;11.05;;;1.45;;
64244;SDS011;50584;29.058;-110.966;2022-11-04T03:09:49;6.40;;;1.30;;
64244;SDS011;50584;29.058;-110.966;2022-11-04T03:12:16;7.03;;;1.38;;
64244;SDS011;50584;29.058;-110.966;2022-11-04T03:14:45;11.82;;;1.95;;
64244;SDS011;50584;29.058;-110.966;2022-11-04T03:17:34;5.85;;;1.90;;
64244;SDS011;50584;29.058;-110.966;2022-11-04T03:19:59;9.40;;;1.23;;
64244;SDS011;50584;29.058;-110.966;2022-11-04T03:22:29;12.02;;;1.95;;
64244;SDS011;50584;29.058;-110.966;2022-11-04T03:24:55;4.00;;;1.05;;
64244;SDS011;50584;29.058;-110.966;2022-11-04T03:27:24;7.28;;;2.03;;
64244;SDS011;50584;29.058;-110.966;2022-11-04T03:32:36;14.52;;;2.22;;
64244;SDS011;50584;29.058;-110.966;2022-11-04T03:35:04;1.23;;;1.13;;
64244;SDS011;50584;29.058;-110.966;2022-11-04T03:37:30;1.33;;;0.93;;
64244;SDS011;50584;29.058;-110.966;2022-11-04T03:39:56;5.38;;;1.33;;
64244;SDS011;50584;29.058;-110.966;2022-11-04T03:42:22;7.97;;;1.40;;
64244;SDS011;50584;29.058;-110.966;2022-11-04T03:44:49;7.38;;;1.40;;
64244;SDS011;50584;29.058;-110.966;2022-11-04T03:47:16;8.68;;;1.30;;
64244;SDS011;50584;29.058;-110.966;2022-11-04T03:49:46;6.30;;;1.25;;
64244;SDS011;50584;29.058;-110.966;2022-11-04T03:52:13;3.55;;;1.42;;
64244;SDS011;50584;29.058;-110.966;2022-11-04T03:54:39;5.25;;;1.15;;
64244;SDS011;50584;29.058;-110.966;2022-11-04T03:57:38;2.92;;;1.42;;
64244;SDS011;50584;29.058;-110.966;2022-11-04T04:02:51;4.32;;;1.35;;
64244;SDS011;50584;29.058;-110.966;2022-11-04T04:07:43;10.13;;;1.40;;
64244;SDS011;50584;29.058;-110.966;2022-11-04T04:10:17;3.58;;;1.15;;
64244;SDS011;50584;29.058;-110.966;2022-11-04T04:13:16;5.47;;;1.40;;
64244;SDS011;50584;29.058;-110.966;2022-11-04T04:15:48;8.02;;;1.30;;
64244;SDS011;50584;29.058;-110.966;2022-11-04T04:18:15;4.13;;;1.30;;
64244;SDS011;50584;29.058;-110.966;2022-11-04T04:20:43;5.68;;;1.25;;
64244;SDS011;50584;29.058;-110.966;2022-11-04T04:23:14;7.80;;;1.10;;
64244;SDS011;50584;29.058;-110.966;2022-11-04T04:25:59;1.42;;;1.00;;
64244;SDS011;50584;29.058;-110.966;2022-11-04T04:28:45;4.18;;;1.10;;
64244;SDS011;50584;29.058;-110.966;2022-11-04T04:31:13;2.15;;;1.10;;
64244;SDS011;50584;29.058;-110.966;2022-11-04T04:33:59;3.38;;;1.08;;
64244;SDS011;50584;29.058;-110.966;2022-11-04T04:36:25;1.30;;;1.20;;
64244;SDS011;50584;29.058;-110.966;2022-11-04T04:38:51;6.50;;;1.30;;
64244;SDS011;50584;29.058;-110.966;2022-11-04T04:41:35;2.33;;;1.17;;
64244;SDS011;50584;29.058;-110.966;2022-11-04T04:44:28;5.32;;;1.20;;
64244;SDS011;50584;29.058;-110.966;2022-11-04T04:47:13;6.82;;;1.20;;
64244;SDS011;50584;29.058;-110.966;2022-11-04T04:52:16;4.72;;;1.10;;
64244;SDS011;50584;29.058;-110.966;2022-11-04T04:54:41;4.28;;;0.90;;
64244;SDS011;50584;29.058;-110.966;2022-11-04T04:57:09;4.20;;;0.77;;
64244;SDS011;50584;29.058;-110.966;2022-11-04T04:59:34;6.50;;;1.20;;
64244;SDS011;50584;29.058;-110.966;2022-11-04T05:02:00;3.00;;;1.00;;
64244;SDS011;50584;29.058;-110.966;2022-11-04T05:04:26;2.95;;;1.10;;
64244;SDS011;50584;29.058;-110.966;2022-11-04T05:06:52;5.00;;;1.00;;
64244;SDS011;50584;29.058;-110.966;2022-11-04T05:09:18;1.90;;;0.93;;
64244;SDS011;50584;29.058;-110.966;2022-11-04T05:11:43;1.20;;;0.90;;
64244;SDS011;50584;29.058;-110.966;2022-11-04T05:14:09;2.72;;;1.20;;
64244;SDS011;50584;29.058;-110.966;2022-11-04T05:16:35;4.43;;;1.08;;
64244;SDS011;50584;29.058;-110.966;2022-11-04T05:19:01;5.75;;;1.17;;
64244;SDS011;50584;29.058;-110.966;2022-11-04T05:21:26;4.80;;;0.90;;
64244;SDS011;50584;29.058;-110.966;2022-11-04T05:23:52;4.30;;;1.02;;
64244;SDS011;50584;29.058;-110.966;2022-11-04T05:26:18;3.30;;;1.00;;
64244;SDS011;50584;29.058;-110.966;2022-11-04T05:28:44;2.38;;;1.27;;
64244;SDS011;50584;29.058;-110.966;2022-11-04T05:31:09;8.25;;;1.10;;
64244;SDS011;50584;29.058;-110.966;2022-11-04T05:33:35;5.97;;;1.33;;
64244;SDS011;50584;29.058;-110.966;2022-11-04T05:36:19;3.60;;;1.35;;
64244;SDS011;50584;29.058;-110.966;2022-11-04T05:38:48;10.43;;;1.70;;
64244;SDS011;50584;29.058;-110.966;2022-11-04T05:41:14;7.50;;;2.05;;
64244;SDS011;50584;29.058;-110.966;2022-11-04T05:43:59;4.35;;;2.35;;
64244;SDS011;50584;29.058;-110.966;2022-11-04T05:46:26;4.32;;;2.20;;
64244;SDS011;50584;29.058;-110.966;2022-11-04T05:48:52;5.32;;;2.10;;
64244;SDS011;50584;29.058;-110.966;2022-11-04T05:51:19;9.98;;;2.28;;
64244;SDS011;50584;29.058;-110.966;2022-11-04T05:53:45;3.20;;;2.00;;
64244;SDS011;50584;29.058;-110.966;2022-11-04T05:56:11;5.45;;;2.30;;
64244;SDS011;50584;29.058;-110.966;2022-11-04T05:58:37;6.03;;;2.45;;
64244;SDS011;50584;29.058;-110.966;2022-11-04T06:01:12;7.10;;;3.70;;
64244;SDS011;50584;29.058;-110.966;2022-11-04T06:03:38;9.05;;;4.00;;
64244;SDS011;50584;29.058;-110.966;2022-11-04T06:06:04;7.72;;;3.88;;
64244;SDS011;50584;29.058;-110.966;2022-11-04T06:08:30;5.40;;;4.20;;
64244;SDS011;50584;29.058;-110.966;2022-11-04T06:10:56;3.75;;;3.42;;
64244;SDS011;50584;29.058;-110.966;2022-11-04T06:13:21;7.72;;;3.70;;
64244;SDS011;50584;29.058;-110.966;2022-11-04T06:15:47;9.07;;;3.00;;
64244;SDS011;50584;29.058;-110.966;2022-11-04T06:18:13;6.70;;;3.03;;
64244;SDS011;50584;29.058;-110.966;2022-11-04T06:20:39;5.45;;;2.63;;
64244;SDS011;50584;29.058;-110.966;2022-11-04T06:23:04;7.53;;;3.25;;
64244;SDS011;50584;29.058;-110.966;2022-11-04T06:25:30;10.02;;;2.72;;
64244;SDS011;50584;29.058;-110.966;2022-11-04T06:27:56;8.80;;;2.50;;
64244;SDS011;50584;29.058;-110.966;2022-11-04T06:30:22;3.42;;;2.50;;
64244;SDS011;50584;29.058;-110.966;2022-11-04T06:32:48;6.82;;;2.38;;
64244;SDS011;50584;29.058;-110.966;2022-11-04T06:35:13;4.78;;;2.08;;
64244;SDS011;50584;29.058;-110.966;2022-11-04T06:37:39;2.92;;;2.28;;
64244;SDS011;50584;29.058;-110.966;2022-11-04T06:40:05;5.60;;;1.80;;
64244;SDS011;50584;29.058;-110.966;2022-11-04T06:42:31;4.63;;;2.22;;
64244;SDS011;50584;29.058;-110.966;2022-11-04T06:44:57;7.18;;;2.30;;
64244;SDS011;50584;29.058;-110.966;2022-11-04T06:47:23;4.40;;;2.70;;
64244;SDS011;50584;29.058;-110.966;2022-11-04T06:49:48;5.68;;;2.05;;
64244;SDS011;50584;29.058;-110.966;2022-11-04T06:52:14;7.45;;;2.08;;
64244;SDS011;50584;29.058;-110.966;2022-11-04T06:54:40;2.65;;;2.15;;
64244;SDS011;50584;29.058;-110.966;2022-11-04T06:57:07;4.50;;;1.80;;
64244;SDS011;50584;29.058;-110.966;2022-11-04T06:59:33;6.30;;;2.30;;
64244;SDS011;50584;29.058;-110.966;2022-11-04T07:01:59;7.15;;;3.10;;
64244;SDS011;50584;29.058;-110.966;2022-11-04T07:04:25;7.53;;;2.38;;
64244;SDS011;50584;29.058;-110.966;2022-11-04T07:06:51;5.95;;;2.47;;
64244;SDS011;50584;29.058;-110.966;2022-11-04T07:09:16;9.15;;;2.70;;
64244;SDS011;50584;29.058;-110.966;2022-11-04T07:11:42;6.30;;;3.00;;
64244;SDS011;50584;29.058;-110.966;2022-11-04T07:14:09;6.80;;;1.98;;
64244;SDS011;50584;29.058;-110.966;2022-11-04T07:16:35;5.20;;;2.00;;
64244;SDS011;50584;29.058;-110.966;2022-11-04T07:19:01;9.40;;;2.13;;
64244;SDS011;50584;29.058;-110.966;2022-11-04T07:21:27;8.43;;;2.05;;
64244;SDS011;50584;29.058;-110.966;2022-11-04T07:23:53;5.35;;;2.28;;
64244;SDS011;50584;29.058;-110.966;2022-11-04T07:26:19;5.55;;;2.38;;
64244;SDS011;50584;29.058;-110.966;2022-11-04T07:28:46;7.60;;;2.17;;
64244;SDS011;50584;29.058;-110.966;2022-11-04T07:31:12;10.77;;;1.98;;
64244;SDS011;50584;29.058;-110.966;2022-11-04T07:33:38;2.25;;;1.90;;
64244;SDS011;50584;29.058;-110.966;2022-11-04T07:36:04;3.38;;;1.60;;
64244;SDS011;50584;29.058;-110.966;2022-11-04T07:38:30;3.85;;;1.70;;
64244;SDS011;50584;29.058;-110.966;2022-11-04T07:40:56;6.22;;;2.05;;
64244;SDS011;50584;29.058;-110.966;2022-11-04T07:43:23;7.32;;;1.52;;
64244;SDS011;50584;29.058;-110.966;2022-11-04T07:46:02;5.00;;;1.83;;
64244;SDS011;50584;29.058;-110.966;2022-11-04T07:48:28;2.53;;;1.25;;
64244;SDS011;50584;29.058;-110.966;2022-11-04T07:50:55;4.63;;;1.70;;
64244;SDS011;50584;29.058;-110.966;2022-11-04T07:53:21;3.72;;;1.77;;
64244;SDS011;50584;29.058;-110.966;2022-11-04T07:55:46;5.70;;;1.50;;
64244;SDS011;50584;29.058;-110.966;2022-11-04T07:58:15;8.07;;;1.60;;
64244;SDS011;50584;29.058;-110.966;2022-11-04T08:00:42;4.00;;;1.30;;
64244;SDS011;50584;29.058;-110.966;2022-11-04T08:03:07;3.70;;;1.50;;
64244;SDS011;50584;29.058;-110.966;2022-11-04T08:05:34;4.18;;;1.48;;
64244;SDS011;50584;29.058;-110.966;2022-11-04T08:08:00;5.65;;;1.67;;
64244;SDS011;50584;29.058;-110.966;2022-11-04T08:10:25;6.18;;;1.70;;
64244;SDS011;50584;29.058;-110.966;2022-11-04T08:12:52;8.05;;;1.50;;
64244;SDS011;50584;29.058;-110.966;2022-11-04T08:15:18;4.90;;;1.70;;
64244;SDS011;50584;29.058;-110.966;2022-11-04T08:17:43;4.82;;;1.60;;
64244;SDS011;50584;29.058;-110.966;2022-11-04T08:20:09;6.15;;;1.67;;
64244;SDS011;50584;29.058;-110.966;2022-11-04T08:22:36;14.88;;;2.10;;
64244;SDS011;50584;29.058;-110.966;2022-11-04T08:25:02;3.97;;;1.77;;
64244;SDS011;50584;29.058;-110.966;2022-11-04T08:27:28;5.25;;;1.70;;
64244;SDS011;50584;29.058;-110.966;2022-11-04T08:29:54;8.95;;;2.55;;
64244;SDS011;50584;29.058;-110.966;2022-11-04T08:32:19;4.68;;;2.47;;
64244;SDS011;50584;29.058;-110.966;2022-11-04T08:34:45;11.75;;;2.30;;
64244;SDS011;50584;29.058;-110.966;2022-11-04T08:37:15;4.70;;;2.20;;
64244;SDS011;50584;29.058;-110.966;2022-11-04T08:39:41;10.52;;;2.67;;
64244;SDS011;50584;29.058;-110.966;2022-11-04T08:42:07;4.82;;;2.60;;
64244;SDS011;50584;29.058;-110.966;2022-11-04T08:44:33;4.15;;;2.53;;
64244;SDS011;50584;29.058;-110.966;2022-11-04T08:46:58;6.07;;;2.17;;
64244;SDS011;50584;29.058;-110.966;2022-11-04T08:49:25;2.10;;;1.92;;
64244;SDS011;50584;29.058;-110.966;2022-11-04T08:51:50;6.05;;;2.40;;
64244;SDS011;50584;29.058;-110.966;2022-11-04T08:54:25;5.82;;;2.58;;
64244;SDS011;50584;29.058;-110.966;2022-11-04T08:56:51;5.60;;;2.20;;
64244;SDS011;50584;29.058;-110.966;2022-11-04T08:59:17;7.90;;;2.47;;
64244;SDS011;50584;29.058;-110.966;2022-11-04T09:01:43;4.97;;;2.60;;
64244;SDS011;50584;29.058;-110.966;2022-11-04T09:04:10;5.18;;;2.20;;
64244;SDS011;50584;29.058;-110.966;2022-11-04T09:06:38;9.57;;;2.90;;
64244;SDS011;50584;29.058;-110.966;2022-11-04T09:09:04;9.25;;;2.80;;
64244;SDS011;50584;29.058;-110.966;2022-11-04T09:11:31;9.25;;;2.60;;
64244;SDS011;50584;29.058;-110.966;2022-11-04T09:13:58;6.43;;;2.50;;
64244;SDS011;50584;29.058;-110.966;2022-11-04T09:16:25;6.18;;;2.90;;
64244;SDS011;50584;29.058;-110.966;2022-11-04T09:18:51;8.23;;;2.95;;
64244;SDS011;50584;29.058;-110.966;2022-11-04T09:21:17;2.63;;;2.30;;
64244;SDS011;50584;29.058;-110.966;2022-11-04T09:23:43;7.78;;;2.22;;
64244;SDS011;50584;29.058;-110.966;2022-11-04T09:26:10;5.93;;;1.85;;
64244;SDS011;50584;29.058;-110.966;2022-11-04T09:28:36;7.82;;;2.10;;
64244;SDS011;50584;29.058;-110.966;2022-11-04T09:31:05;3.85;;;2.60;;
64244;SDS011;50584;29.058;-110.966;2022-11-04T09:33:31;3.65;;;2.13;;
64244;SDS011;50584;29.058;-110.966;2022-11-04T09:35:57;4.43;;;2.03;;
64244;SDS011;50584;29.058;-110.966;2022-11-04T09:38:24;3.63;;;2.08;;
64244;SDS011;50584;29.058;-110.966;2022-11-04T09:40:50;2.90;;;1.60;;
64244;SDS011;50584;29.058;-110.966;2022-11-04T09:46:00;6.30;;;1.95;;
64244;SDS011;50584;29.058;-110.966;2022-11-04T09:51:05;12.55;;;2.00;;
64244;SDS011;50584;29.058;-110.966;2022-11-04T09:53:45;2.75;;;1.23;;
64244;SDS011;50584;29.058;-110.966;2022-11-04T09:56:22;8.32;;;1.92;;
64244;SDS011;50584;29.058;-110.966;2022-11-04T09:58:48;2.10;;;1.42;;
64244;SDS011;50584;29.058;-110.966;2022-11-04T10:08:38;2.53;;;1.05;;
64244;SDS011;50584;29.058;-110.966;2022-11-04T10:18:51;1.13;;;1.00;;
64244;SDS011;50584;29.058;-110.966;2022-11-04T10:21:22;3.70;;;1.10;;
64244;SDS011;50584;29.058;-110.966;2022-11-04T10:26:21;5.68;;;1.45;;
64244;SDS011;50584;29.058;-110.966;2022-11-04T10:28:57;2.53;;;1.10;;
64244;SDS011;50584;29.058;-110.966;2022-11-04T10:31:25;7.80;;;1.10;;
64244;SDS011;50584;29.058;-110.966;2022-11-04T10:33:53;3.83;;;1.15;;
64244;SDS011;50584;29.058;-110.966;2022-11-04T10:36:19;3.78;;;1.10;;
64244;SDS011;50584;29.058;-110.966;2022-11-04T10:43:51;7.45;;;1.10;;
64244;SDS011;50584;29.058;-110.966;2022-11-04T10:51:25;8.23;;;1.10;;
64244;SDS011;50584;29.058;-110.966;2022-11-04T10:53:54;1.58;;;1.23;;
64244;SDS011;50584;29.058;-110.966;2022-11-04T10:58:52;8.38;;;0.95;;
64244;SDS011;50584;29.058;-110.966;2022-11-04T11:03:51;2.17;;;1.10;;
64244;SDS011;50584;29.058;-110.966;2022-11-04T11:06:32;3.97;;;1.27;;
64244;SDS011;50584;29.058;-110.966;2022-11-04T11:09:00;5.45;;;1.17;;
64244;SDS011;50584;29.058;-110.966;2022-11-04T11:11:46;8.35;;;1.10;;
64244;SDS011;50584;29.058;-110.966;2022-11-04T11:16:55;10.10;;;1.30;;
64244;SDS011;50584;29.058;-110.966;2022-11-04T11:19:22;6.40;;;1.13;;
64244;SDS011;50584;29.058;-110.966;2022-11-04T11:21:54;1.95;;;1.08;;
64244;SDS011;50584;29.058;-110.966;2022-11-04T11:24:24;8.73;;;1.00;;
64244;SDS011;50584;29.058;-110.966;2022-11-04T11:27:01;8.00;;;1.30;;
64244;SDS011;50584;29.058;-110.966;2022-11-04T11:31:54;8.50;;;1.38;;
64244;SDS011;50584;29.058;-110.966;2022-11-04T11:36:53;7.78;;;1.23;;
64244;SDS011;50584;29.058;-110.966;2022-11-04T11:39:20;12.30;;;2.00;;
64244;SDS011;50584;29.058;-110.966;2022-11-04T11:44:55;10.05;;;1.48;;
64244;SDS011;50584;29.058;-110.966;2022-11-04T11:50:14;7.72;;;1.15;;
64244;SDS011;50584;29.058;-110.966;2022-11-04T11:52:39;9.77;;;1.27;;
64244;SDS011;50584;29.058;-110.966;2022-11-04T11:55:14;13.60;;;1.40;;
64244;SDS011;50584;29.058;-110.966;2022-11-04T11:57:43;8.23;;;1.40;;
64244;SDS011;50584;29.058;-110.966;2022-11-04T12:00:13;6.25;;;1.55;;
64244;SDS011;50584;29.058;-110.966;2022-11-04T12:05:11;7.13;;;1.77;;
64244;SDS011;50584;29.058;-110.966;2022-11-04T12:10:28;10.13;;;1.60;;
64244;SDS011;50584;29.058;-110.966;2022-11-04T12:20:51;7.07;;;2.22;;
64244;SDS011;50584;29.058;-110.966;2022-11-04T12:23:27;12.20;;;1.90;;
64244;SDS011;50584;29.058;-110.966;2022-11-04T12:28:27;8.82;;;1.65;;
64244;SDS011;50584;29.058;-110.966;2022-11-04T12:31:00;14.38;;;1.55;;
64244;SDS011;50584;29.058;-110.966;2022-11-04T12:36:11;8.60;;;1.52;;
64244;SDS011;50584;29.058;-110.966;2022-11-04T12:38:52;4.32;;;1.30;;
64244;SDS011;50584;29.058;-110.966;2022-11-04T12:41:24;16.10;;;1.75;;
64244;SDS011;50584;29.058;-110.966;2022-11-04T12:43:56;14.25;;;1.90;;
64244;SDS011;50584;29.058;-110.966;2022-11-04T12:51:36;6.20;;;2.05;;
64244;SDS011;50584;29.058;-110.966;2022-11-04T12:56:51;9.52;;;2.05;;
64244;SDS011;50584;29.058;-110.966;2022-11-04T13:02:09;13.48;;;2.15;;
64244;SDS011;50584;29.058;-110.966;2022-11-04T13:04:42;7.10;;;1.67;;
64244;SDS011;50584;29.058;-110.966;2022-11-04T13:07:26;8.20;;;1.65;;
64244;SDS011;50584;29.058;-110.966;2022-11-04T13:09:57;5.00;;;1.20;;
64244;SDS011;50584;29.058;-110.966;2022-11-04T13:12:44;14.07;;;1.83;;
64244;SDS011;50584;29.058;-110.966;2022-11-04T13:15:17;13.20;;;1.45;;
64244;SDS011;50584;29.058;-110.966;2022-11-04T13:17:44;5.65;;;1.38;;
64244;SDS011;50584;29.058;-110.966;2022-11-04T13:22:40;16.77;;;1.58;;
64244;SDS011;50584;29.058;-110.966;2022-11-04T13:27:40;13.45;;;1.92;;
64244;SDS011;50584;29.058;-110.966;2022-11-04T13:30:20;1.10;;;1.00;;
64244;SDS011;50584;29.058;-110.966;2022-11-04T13:35:31;5.65;;;1.30;;
64244;SDS011;50584;29.058;-110.966;2022-11-04T13:38:02;9.80;;;2.28;;
64244;SDS011;50584;29.058;-110.966;2022-11-04T13:40:35;8.60;;;2.58;;
64244;SDS011;50584;29.058;-110.966;2022-11-04T13:43:12;5.72;;;2.00;;
64244;SDS011;50584;29.058;-110.966;2022-11-04T13:45:58;10.68;;;4.40;;
64244;SDS011;50584;29.058;-110.966;2022-11-04T13:48:25;17.48;;;2.72;;
64244;SDS011;50584;29.058;-110.966;2022-11-04T13:50:58;23.00;;;6.60;;
64244;SDS011;50584;29.058;-110.966;2022-11-04T13:55:50;88.25;;;29.10;;
64244;SDS011;50584;29.058;-110.966;2022-11-04T13:58:19;22.05;;;6.25;;
64244;SDS011;50584;29.058;-110.966;2022-11-04T14:01:07;139.80;;;45.83;;
64244;SDS011;50584;29.058;-110.966;2022-11-04T14:03:51;88.55;;;27.30;;
64244;SDS011;50584;29.058;-110.966;2022-11-04T14:06:17;74.90;;;21.70;;
64244;SDS011;50584;29.058;-110.966;2022-11-04T14:14:31;56.13;;;16.40;;
64244;SDS011;50584;29.058;-110.966;2022-11-04T14:16:57;26.48;;;7.63;;
64244;SDS011;50584;29.058;-110.966;2022-11-04T14:22:47;112.68;;;32.92;;
64244;SDS011;50584;29.058;-110.966;2022-11-04T14:25:18;77.03;;;23.45;;
64244;SDS011;50584;29.058;-110.966;2022-11-04T14:27:49;91.43;;;24.17;;
64244;SDS011;50584;29.058;-110.966;2022-11-04T14:30:35;94.65;;;22.73;;
64244;SDS011;50584;29.058;-110.966;2022-11-04T14:33:05;73.65;;;18.05;;
64244;SDS011;50584;29.058;-110.966;2022-11-04T14:35:31;69.87;;;17.53;;
64244;SDS011;50584;29.058;-110.966;2022-11-04T14:37:59;52.80;;;10.57;;
64244;SDS011;50584;29.058;-110.966;2022-11-04T14:40:28;55.85;;;14.05;;
64244;SDS011;50584;29.058;-110.966;2022-11-04T14:44:12;50.35;;;12.63;;
64244;SDS011;50584;29.058;-110.966;2022-11-04T14:46:05;38.92;;;11.43;;
64244;SDS011;50584;29.058;-110.966;2022-11-04T14:48:31;29.40;;;7.88;;
64244;SDS011;50584;29.058;-110.966;2022-11-04T14:50:57;31.27;;;7.93;;
64244;SDS011;50584;29.058;-110.966;2022-11-04T14:53:30;23.80;;;6.47;;
64244;SDS011;50584;29.058;-110.966;2022-11-04T15:01:21;34.38;;;5.22;;
64244;SDS011;50584;29.058;-110.966;2022-11-04T15:03:47;39.45;;;6.75;;
64244;SDS011;50584;29.058;-110.966;2022-11-04T15:06:13;18.92;;;5.80;;
64244;SDS011;50584;29.058;-110.966;2022-11-04T15:08:47;53.38;;;6.78;;
64244;SDS011;50584;29.058;-110.966;2022-11-04T15:11:14;25.40;;;6.10;;
64244;SDS011;50584;29.058;-110.966;2022-11-04T15:16:24;19.42;;;4.55;;
64244;SDS011;50584;29.058;-110.966;2022-11-04T15:18:51;32.75;;;6.10;;
64244;SDS011;50584;29.058;-110.966;2022-11-04T15:21:18;28.52;;;5.60;;
64244;SDS011;50584;29.058;-110.966;2022-11-04T15:23:53;12.48;;;2.22;;
64244;SDS011;50584;29.058;-110.966;2022-11-04T15:26:20;12.82;;;3.45;;
64244;SDS011;50584;29.058;-110.966;2022-11-04T15:28:47;11.52;;;1.85;;
64244;SDS011;50584;29.058;-110.966;2022-11-04T15:31:15;12.65;;;2.35;;
64244;SDS011;50584;29.058;-110.966;2022-11-04T15:33:42;13.73;;;2.65;;
64244;SDS011;50584;29.058;-110.966;2022-11-04T15:36:11;6.40;;;2.25;;
64244;SDS011;50584;29.058;-110.966;2022-11-04T15:38:38;9.52;;;1.55;;
64244;SDS011;50584;29.058;-110.966;2022-11-04T15:41:05;7.00;;;1.33;;
64244;SDS011;50584;29.058;-110.966;2022-11-04T15:43:49;10.10;;;1.83;;
64244;SDS011;50584;29.058;-110.966;2022-11-04T15:46:18;2.70;;;1.98;;
64244;SDS011;50584;29.058;-110.966;2022-11-04T15:49:05;13.25;;;1.85;;
64244;SDS011;50584;29.058;-110.966;2022-11-04T15:51:33;13.38;;;1.58;;
64244;SDS011;50584;29.058;-110.966;2022-11-04T15:54:02;7.57;;;1.53;;
64244;SDS011;50584;29.058;-110.966;2022-11-04T15:56:33;8.10;;;1.65;;
64244;SDS011;50584;29.058;-110.966;2022-11-04T15:59:05;6.68;;;1.33;;
64244;SDS011;50584;29.058;-110.966;2022-11-04T16:01:32;17.33;;;1.40;;
64244;SDS011;50584;29.058;-110.966;2022-11-04T16:03:59;6.72;;;1.33;;
64244;SDS011;50584;29.058;-110.966;2022-11-04T16:06:35;6.00;;;1.60;;
64244;SDS011;50584;29.058;-110.966;2022-11-04T16:09:06;13.10;;;1.80;;
64244;SDS011;50584;29.058;-110.966;2022-11-04T16:11:51;4.95;;;1.30;;
64244;SDS011;50584;29.058;-110.966;2022-11-04T16:14:28;10.02;;;1.40;;
64244;SDS011;50584;29.058;-110.966;2022-11-04T16:16:54;11.95;;;1.52;;
64244;SDS011;50584;29.058;-110.966;2022-11-04T16:19:24;9.00;;;0.90;;
64244;SDS011;50584;29.058;-110.966;2022-11-04T16:21:58;5.85;;;1.63;;
64244;SDS011;50584;29.058;-110.966;2022-11-04T16:24:24;7.70;;;1.60;;
64244;SDS011;50584;29.058;-110.966;2022-11-04T16:26:53;14.13;;;1.75;;
64244;SDS011;50584;29.058;-110.966;2022-11-04T16:29:20;4.47;;;1.30;;
64244;SDS011;50584;29.058;-110.966;2022-11-04T16:34:49;7.82;;;1.65;;
64244;SDS011;50584;29.058;-110.966;2022-11-04T16:37:16;1.85;;;1.20;;
64244;SDS011;50584;29.058;-110.966;2022-11-04T16:39:43;13.20;;;1.35;;
64244;SDS011;50584;29.058;-110.966;2022-11-04T16:42:12;5.22;;;1.38;;
64244;SDS011;50584;29.058;-110.966;2022-11-04T16:44:38;5.22;;;1.25;;